sensor_id;sensor_type;location;lat;lon;timestamp;pressure;altitude;pressure_sealevel;temperature;humidity
64158;BME280;50449;51.528;5.076;2023-04-04T00:01:56;102832.63;;;12.09;48.23
64158;BME280;50449;51.528;5.076;2023-04-04T00:04:26;102834.72;;;12.07;48.06
64158;BME280;50449;51.528;5.076;2023-04-04T00:06:52;102828.69;;;12.05;48.11
64158;BME280;50449;51.528;5.076;2023-04-04T00:09:18;102833.44;;;12.03;48.14
64158;BME280;50449;51.528;5.076;2023-04-04T00:11:44;102828.22;;;12.02;48.19
64158;BME280;50449;51.528;5.076;2023-04-04T00:14:10;102832.81;;;12.01;48.15
64158;BME280;50449;51.528;5.076;2023-04-04T00:16:35;102834.03;;;11.99;48.15
64158;BME280;50449;51.528;5.076;2023-04-04T00:19:01;102845.94;;;11.98;48.24
64158;BME280;50449;51.528;5.076;2023-04-04T00:21:26;102846.13;;;11.96;48.00
64158;BME280;50449;51.528;5.076;2023-04-04T00:23:58;102850.06;;;11.94;48.21
64158;BME280;50449;51.528;5.076;2023-04-04T00:26:23;102851.94;;;11.93;48.43
64158;BME280;50449;51.528;5.076;2023-04-04T00:28:50;102847.75;;;11.90;48.13
64158;BME280;50449;51.528;5.076;2023-04-04T00:31:15;102840.69;;;11.89;48.14
64158;BME280;50449;51.528;5.076;2023-04-04T00:33:41;102849.00;;;11.88;48.13
64158;BME280;50449;51.528;5.076;2023-04-04T00:36:07;102844.63;;;11.87;48.26
64158;BME280;50449;51.528;5.076;2023-04-04T00:38:33;102849.38;;;11.85;48.27
64158;BME280;50449;51.528;5.076;2023-04-04T00:40:58;102851.44;;;11.83;48.18
64158;BME280;50449;51.528;5.076;2023-04-04T00:43:24;102846.22;;;11.81;48.20
64158;BME280;50449;51.528;5.076;2023-04-04T00:45:50;102847.25;;;11.80;48.09
64158;BME280;50449;51.528;5.076;2023-04-04T00:48:16;102849.31;;;11.78;48.17
64158;BME280;50449;51.528;5.076;2023-04-04T00:50:42;102852.22;;;11.77;48.03
64158;BME280;50449;51.528;5.076;2023-04-04T00:53:08;102853.25;;;11.76;48.28
64158;BME280;50449;51.528;5.076;2023-04-04T00:55:36;102848.03;;;11.74;48.23
64158;BME280;50449;51.528;5.076;2023-04-04T00:58:02;102844.72;;;11.72;48.17
64158;BME280;50449;51.528;5.076;2023-04-04T01:00:28;102851.16;;;11.71;48.20
64158;BME280;50449;51.528;5.076;2023-04-04T01:02:53;102847.81;;;11.69;48.21
64158;BME280;50449;51.528;5.076;2023-04-04T01:05:19;102854.25;;;11.68;48.35
64158;BME280;50449;51.528;5.076;2023-04-04T01:07:44;102846.31;;;11.66;48.15
64158;BME280;50449;51.528;5.076;2023-04-04T01:10:10;102842.16;;;11.64;48.21
64158;BME280;50449;51.528;5.076;2023-04-04T01:12:36;102845.06;;;11.62;48.11
64158;BME280;50449;51.528;5.076;2023-04-04T01:15:02;102839.84;;;11.61;48.20
64158;BME280;50449;51.528;5.076;2023-04-04T01:17:27;102834.66;;;11.59;48.07
64158;BME280;50449;51.528;5.076;2023-04-04T01:20:16;102834.84;;;11.58;48.28
64158;BME280;50449;51.528;5.076;2023-04-04T01:22:46;102824.41;;;11.55;48.31
64158;BME280;50449;51.528;5.076;2023-04-04T01:25:13;102824.59;;;11.53;48.27
64158;BME280;50449;51.528;5.076;2023-04-04T01:27:39;102819.19;;;11.53;48.25
64158;BME280;50449;51.528;5.076;2023-04-04T01:30:05;102822.09;;;11.52;48.18
64158;BME280;50449;51.528;5.076;2023-04-04T01:32:34;102816.03;;;11.50;48.25
64158;BME280;50449;51.528;5.076;2023-04-04T01:40:40;102821.59;;;11.41;48.17
64158;BME280;50449;51.528;5.076;2023-04-04T01:43:07;102814.50;;;11.40;48.26
64158;BME280;50449;51.528;5.076;2023-04-04T01:45:34;102816.38;;;11.40;48.18
64158;BME280;50449;51.528;5.076;2023-04-04T01:48:00;102814.69;;;11.39;48.29
64158;BME280;50449;51.528;5.076;2023-04-04T01:50:25;102814.09;;;11.37;48.30
64158;BME280;50449;51.528;5.076;2023-04-04T01:52:51;102815.09;;;11.36;48.36
64158;BME280;50449;51.528;5.076;2023-04-04T01:55:17;102816.34;;;11.33;48.27
64158;BME280;50449;51.528;5.076;2023-04-04T01:57:42;102809.25;;;11.32;48.39
64158;BME280;50449;51.528;5.076;2023-04-04T02:00:08;102809.44;;;11.31;48.28
64158;BME280;50449;51.528;5.076;2023-04-04T02:02:34;102809.66;;;11.29;48.29
64158;BME280;50449;51.528;5.076;2023-04-04T02:04:59;102814.22;;;11.29;48.20
64158;BME280;50449;51.528;5.076;2023-04-04T02:07:24;102807.31;;;11.26;48.32
64158;BME280;50449;51.528;5.076;2023-04-04T02:09:50;102806.72;;;11.24;48.26
64158;BME280;50449;51.528;5.076;2023-04-04T02:12:15;102810.25;;;11.24;48.31
64158;BME280;50449;51.528;5.076;2023-04-04T02:14:41;102806.06;;;11.22;48.32
64158;BME280;50449;51.528;5.076;2023-04-04T02:17:06;102807.06;;;11.21;48.28
64158;BME280;50449;51.528;5.076;2023-04-04T02:19:32;102811.88;;;11.19;48.32
64158;BME280;50449;51.528;5.076;2023-04-04T02:21:57;102813.09;;;11.16;48.29
64158;BME280;50449;51.528;5.076;2023-04-04T02:24:23;102820.34;;;11.16;48.31
64158;BME280;50449;51.528;5.076;2023-04-04T02:26:48;102825.16;;;11.14;48.28
64158;BME280;50449;51.528;5.076;2023-04-04T02:29:13;102828.88;;;11.13;48.23
64158;BME280;50449;51.528;5.076;2023-04-04T02:31:39;102816.56;;;11.10;48.21
64158;BME280;50449;51.528;5.076;2023-04-04T02:34:04;102824.88;;;11.09;48.39
64158;BME280;50449;51.528;5.076;2023-04-04T02:36:30;102830.50;;;11.07;48.23
64158;BME280;50449;51.528;5.076;2023-04-04T02:38:55;102836.91;;;11.06;48.41
64158;BME280;50449;51.528;5.076;2023-04-04T02:41:21;102832.56;;;11.05;48.47
64158;BME280;50449;51.528;5.076;2023-04-04T02:43:47;102822.97;;;11.02;48.48
64158;BME280;50449;51.528;5.076;2023-04-04T02:46:12;102823.13;;;11.01;48.38
64158;BME280;50449;51.528;5.076;2023-04-04T02:48:38;102824.19;;;11.00;48.38
64158;BME280;50449;51.528;5.076;2023-04-04T02:51:04;102817.28;;;10.97;48.30
64158;BME280;50449;51.528;5.076;2023-04-04T02:53:29;102821.03;;;10.96;48.33
64158;BME280;50449;51.528;5.076;2023-04-04T02:55:55;102824.75;;;10.95;48.27
64158;BME280;50449;51.528;5.076;2023-04-04T02:58:20;102817.69;;;10.94;48.23
64158;BME280;50449;51.528;5.076;2023-04-04T03:00:53;102819.75;;;10.92;48.29
64158;BME280;50449;51.528;5.076;2023-04-04T03:03:18;102823.50;;;10.91;48.40
64158;BME280;50449;51.528;5.076;2023-04-04T03:05:44;102824.72;;;10.89;48.31
64158;BME280;50449;51.528;5.076;2023-04-04T03:08:09;102818.66;;;10.87;48.52
64158;BME280;50449;51.528;5.076;2023-04-04T03:10:35;102831.34;;;10.86;48.42
64158;BME280;50449;51.528;5.076;2023-04-04T03:13:00;102828.81;;;10.85;48.25
64158;BME280;50449;51.528;5.076;2023-04-04T03:15:26;102833.59;;;10.82;48.22
64158;BME280;50449;51.528;5.076;2023-04-04T03:17:52;102831.94;;;10.81;48.33
64158;BME280;50449;51.528;5.076;2023-04-04T03:20:18;102830.22;;;10.80;48.25
64158;BME280;50449;51.528;5.076;2023-04-04T03:22:43;102825.88;;;10.79;48.46
64158;BME280;50449;51.528;5.076;2023-04-04T03:25:08;102818.97;;;10.77;48.45
64158;BME280;50449;51.528;5.076;2023-04-04T03:27:34;102821.69;;;10.77;48.26
64158;BME280;50449;51.528;5.076;2023-04-04T03:30:00;102821.03;;;10.75;48.35
64158;BME280;50449;51.528;5.076;2023-04-04T03:32:25;102823.91;;;10.73;48.33
64158;BME280;50449;51.528;5.076;2023-04-04T03:34:51;102811.44;;;10.72;48.54
64158;BME280;50449;51.528;5.076;2023-04-04T03:37:17;102808.94;;;10.71;48.15
64158;BME280;50449;51.528;5.076;2023-04-04T03:39:42;102809.31;;;10.68;48.46
64158;BME280;50449;51.528;5.076;2023-04-04T03:42:08;102809.31;;;10.68;48.25
64158;BME280;50449;51.528;5.076;2023-04-04T03:44:33;102803.25;;;10.66;48.37
64158;BME280;50449;51.528;5.076;2023-04-04T03:46:58;102794.31;;;10.65;48.39
64158;BME280;50449;51.528;5.076;2023-04-04T03:49:24;102792.84;;;10.63;48.39
64158;BME280;50449;51.528;5.076;2023-04-04T03:51:49;102790.34;;;10.61;48.32
64158;BME280;50449;51.528;5.076;2023-04-04T03:54:14;102785.97;;;10.60;48.39
64158;BME280;50449;51.528;5.076;2023-04-04T03:56:41;102778.06;;;10.58;48.36
64158;BME280;50449;51.528;5.076;2023-04-04T03:59:07;102775.34;;;10.58;48.40
64158;BME280;50449;51.528;5.076;2023-04-04T04:01:32;102770.31;;;10.55;48.19
64158;BME280;50449;51.528;5.076;2023-04-04T04:03:57;102775.94;;;10.54;48.46
64158;BME280;50449;51.528;5.076;2023-04-04T04:06:25;102789.63;;;10.52;48.30
64158;BME280;50449;51.528;5.076;2023-04-04T04:08:51;102798.94;;;10.50;48.53
64158;BME280;50449;51.528;5.076;2023-04-04T04:11:16;102799.78;;;10.50;48.45
64158;BME280;50449;51.528;5.076;2023-04-04T04:13:42;102794.75;;;10.47;48.49
64158;BME280;50449;51.528;5.076;2023-04-04T04:16:07;102794.13;;;10.45;48.36
64158;BME280;50449;51.528;5.076;2023-04-04T04:18:32;102796.81;;;10.45;48.48
64158;BME280;50449;51.528;5.076;2023-04-04T04:20:58;102800.56;;;10.44;48.44
64158;BME280;50449;51.528;5.076;2023-04-04T04:23:25;102795.53;;;10.41;48.60
64158;BME280;50449;51.528;5.076;2023-04-04T04:25:51;102799.25;;;10.40;48.37
64158;BME280;50449;51.528;5.076;2023-04-04T04:28:16;102791.38;;;10.38;48.50
64158;BME280;50449;51.528;5.076;2023-04-04T04:30:42;102788.84;;;10.37;48.35
64158;BME280;50449;51.528;5.076;2023-04-04T04:33:08;102786.31;;;10.35;48.50
64158;BME280;50449;51.528;5.076;2023-04-04T04:35:37;102787.34;;;10.34;48.42
64158;BME280;50449;51.528;5.076;2023-04-04T04:38:04;102797.50;;;10.32;48.47
64158;BME280;50449;51.528;5.076;2023-04-04T04:40:30;102794.16;;;10.30;48.44
64158;BME280;50449;51.528;5.076;2023-04-04T04:42:55;102787.09;;;10.29;48.39
64158;BME280;50449;51.528;5.076;2023-04-04T04:45:21;102798.94;;;10.28;48.52
64158;BME280;50449;51.528;5.076;2023-04-04T04:47:46;102798.06;;;10.28;48.42
64158;BME280;50449;51.528;5.076;2023-04-04T04:50:11;102810.06;;;10.25;48.67
64158;BME280;50449;51.528;5.076;2023-04-04T04:52:37;102814.63;;;10.25;48.50
64158;BME280;50449;51.528;5.076;2023-04-04T04:55:03;102819.38;;;10.23;48.47
64158;BME280;50449;51.528;5.076;2023-04-04T04:57:29;102819.59;;;10.21;48.36
64158;BME280;50449;51.528;5.076;2023-04-04T04:59:55;102829.56;;;10.21;48.47
64158;BME280;50449;51.528;5.076;2023-04-04T05:02:20;102818.94;;;10.19;48.70
64158;BME280;50449;51.528;5.076;2023-04-04T05:04:45;102826.38;;;10.17;48.47
64158;BME280;50449;51.528;5.076;2023-04-04T05:07:11;102827.44;;;10.16;48.59
64158;BME280;50449;51.528;5.076;2023-04-04T05:09:37;102824.06;;;10.14;48.52
64158;BME280;50449;51.528;5.076;2023-04-04T05:12:03;102819.69;;;10.13;48.65
64158;BME280;50449;51.528;5.076;2023-04-04T05:14:28;102825.06;;;10.13;48.46
64158;BME280;50449;51.528;5.076;2023-04-04T05:16:54;102832.56;;;10.11;48.58
64158;BME280;50449;51.528;5.076;2023-04-04T05:19:19;102824.63;;;10.09;48.76
64158;BME280;50449;51.528;5.076;2023-04-04T05:21:45;102839.16;;;10.08;48.49
64158;BME280;50449;51.528;5.076;2023-04-04T05:24:10;102833.13;;;10.06;48.56
64158;BME280;50449;51.528;5.076;2023-04-04T05:26:36;102831.41;;;10.05;48.63
64158;BME280;50449;51.528;5.076;2023-04-04T05:29:02;102832.63;;;10.03;48.60
64158;BME280;50449;51.528;5.076;2023-04-04T05:31:27;102832.84;;;10.01;48.43
64158;BME280;50449;51.528;5.076;2023-04-04T05:33:52;102842.81;;;10.01;48.54
64158;BME280;50449;51.528;5.076;2023-04-04T05:36:18;102838.41;;;10.00;48.45
64158;BME280;50449;51.528;5.076;2023-04-04T05:38:43;102839.44;;;9.99;48.86
64158;BME280;50449;51.528;5.076;2023-04-04T05:41:09;102838.78;;;9.96;48.49
64158;BME280;50449;51.528;5.076;2023-04-04T05:43:34;102831.75;;;9.95;48.49
64158;BME280;50449;51.528;5.076;2023-04-04T05:46:00;102828.38;;;9.93;48.67
64158;BME280;50449;51.528;5.076;2023-04-04T05:48:26;102832.09;;;9.92;48.36
64158;BME280;50449;51.528;5.076;2023-04-04T05:50:51;102826.91;;;9.91;48.57
64158;BME280;50449;51.528;5.076;2023-04-04T05:53:16;102822.50;;;9.90;48.53
64158;BME280;50449;51.528;5.076;2023-04-04T05:55:42;102826.22;;;9.89;48.41
64158;BME280;50449;51.528;5.076;2023-04-04T05:58:07;102834.50;;;9.87;48.78
64158;BME280;50449;51.528;5.076;2023-04-04T06:00:33;102827.44;;;9.86;48.47
64158;BME280;50449;51.528;5.076;2023-04-04T06:02:58;102832.19;;;9.84;48.54
64158;BME280;50449;51.528;5.076;2023-04-04T06:05:24;102835.94;;;9.83;48.52
64158;BME280;50449;51.528;5.076;2023-04-04T06:07:52;102824.47;;;9.81;48.39
64158;BME280;50449;51.528;5.076;2023-04-04T06:10:17;102837.31;;;9.79;48.39
64158;BME280;50449;51.528;5.076;2023-04-04T06:12:42;102830.44;;;9.77;48.65
64158;BME280;50449;51.528;5.076;2023-04-04T06:15:08;102837.69;;;9.76;48.48
64158;BME280;50449;51.528;5.076;2023-04-04T06:17:33;102851.19;;;9.76;48.18
64158;BME280;50449;51.528;5.076;2023-04-04T06:19:59;102834.16;;;9.75;48.55
64158;BME280;50449;51.528;5.076;2023-04-04T06:22:24;102843.47;;;9.73;48.38
64158;BME280;50449;51.528;5.076;2023-04-04T06:24:50;102849.88;;;9.72;48.20
64158;BME280;50449;51.528;5.076;2023-04-04T06:27:15;102848.19;;;9.71;48.57
64158;BME280;50449;51.528;5.076;2023-04-04T06:29:41;102846.50;;;9.70;48.50
64158;BME280;50449;51.528;5.076;2023-04-04T06:32:07;102848.38;;;9.69;48.48
64158;BME280;50449;51.528;5.076;2023-04-04T06:34:32;102860.22;;;9.68;48.32
64158;BME280;50449;51.528;5.076;2023-04-04T06:36:57;102854.97;;;9.67;48.18
64158;BME280;50449;51.528;5.076;2023-04-04T06:39:23;102860.59;;;9.65;47.95
64158;BME280;50449;51.528;5.076;2023-04-04T06:41:48;102860.75;;;9.64;48.16
64158;BME280;50449;51.528;5.076;2023-04-04T06:44:13;102859.91;;;9.63;48.26
64158;BME280;50449;51.528;5.076;2023-04-04T06:46:39;102855.53;;;9.62;48.18
64158;BME280;50449;51.528;5.076;2023-04-04T06:49:05;102853.03;;;9.61;48.12
64158;BME280;50449;51.528;5.076;2023-04-04T06:51:32;102862.13;;;9.60;48.02
64158;BME280;50449;51.528;5.076;2023-04-04T06:53:59;102873.97;;;9.59;48.16
64158;BME280;50449;51.528;5.076;2023-04-04T06:56:25;102868.94;;;9.56;48.05
64158;BME280;50449;51.528;5.076;2023-04-04T06:58:51;102868.09;;;9.55;47.85
64158;BME280;50449;51.528;5.076;2023-04-04T07:01:16;102861.84;;;9.54;47.98
64158;BME280;50449;51.528;5.076;2023-04-04T07:03:42;102862.06;;;9.53;48.09
64158;BME280;50449;51.528;5.076;2023-04-04T07:06:08;102858.53;;;9.52;48.10
64158;BME280;50449;51.528;5.076;2023-04-04T07:08:34;102860.34;;;9.52;47.91
64158;BME280;50449;51.528;5.076;2023-04-04T07:10:59;102859.53;;;9.51;47.90
64158;BME280;50449;51.528;5.076;2023-04-04T07:13:25;102866.78;;;9.51;48.07
64158;BME280;50449;51.528;5.076;2023-04-04T07:15:51;102864.25;;;9.49;47.98
64158;BME280;50449;51.528;5.076;2023-04-04T07:18:16;102863.25;;;9.50;47.97
64158;BME280;50449;51.528;5.076;2023-04-04T07:20:42;102868.66;;;9.50;48.04
64158;BME280;50449;51.528;5.076;2023-04-04T07:23:09;102869.47;;;9.51;48.05
64158;BME280;50449;51.528;5.076;2023-04-04T07:25:36;102872.19;;;9.51;48.01
64158;BME280;50449;51.528;5.076;2023-04-04T07:28:02;102870.53;;;9.50;48.30
64158;BME280;50449;51.528;5.076;2023-04-04T07:30:27;102864.09;;;9.51;47.67
64158;BME280;50449;51.528;5.076;2023-04-04T07:32:58;102866.78;;;9.51;47.92
64158;BME280;50449;51.528;5.076;2023-04-04T07:35:23;102860.56;;;9.50;48.04
64158;BME280;50449;51.528;5.076;2023-04-04T07:37:49;102864.91;;;9.51;47.90
64158;BME280;50449;51.528;5.076;2023-04-04T07:40:15;102858.53;;;9.52;47.79
64158;BME280;50449;51.528;5.076;2023-04-04T07:42:44;102858.31;;;9.54;47.66
64158;BME280;50449;51.528;5.076;2023-04-04T07:45:12;102862.88;;;9.53;47.72
64158;BME280;50449;51.528;5.076;2023-04-04T07:47:42;102864.53;;;9.54;47.69
64158;BME280;50449;51.528;5.076;2023-04-04T07:50:08;102863.53;;;9.56;47.65
64158;BME280;50449;51.528;5.076;2023-04-04T07:52:33;102858.97;;;9.56;47.69
64158;BME280;50449;51.528;5.076;2023-04-04T07:54:59;102858.81;;;9.58;47.64
64158;BME280;50449;51.528;5.076;2023-04-04T07:57:25;102858.59;;;9.59;47.86
64158;BME280;50449;51.528;5.076;2023-04-04T07:59:50;102861.13;;;9.61;47.96
64158;BME280;50449;51.528;5.076;2023-04-04T08:02:16;102863.44;;;9.64;47.80
64158;BME280;50449;51.528;5.076;2023-04-04T08:04:41;102852.28;;;9.67;47.96
64158;BME280;50449;51.528;5.076;2023-04-04T08:07:06;102853.97;;;9.68;47.88
64158;BME280;50449;51.528;5.076;2023-04-04T08:09:32;102856.09;;;9.72;47.70
64158;BME280;50449;51.528;5.076;2023-04-04T08:12:00;102857.78;;;9.73;47.82
64158;BME280;50449;51.528;5.076;2023-04-04T08:14:26;102858.25;;;9.77;47.92
64158;BME280;50449;51.528;5.076;2023-04-04T08:16:52;102859.72;;;9.80;47.92
64158;BME280;50449;51.528;5.076;2023-04-04T08:19:19;102863.91;;;9.82;47.77
64158;BME280;50449;51.528;5.076;2023-04-04T08:21:46;102856.47;;;9.84;48.17
64158;BME280;50449;51.528;5.076;2023-04-04T08:24:11;102857.97;;;9.87;48.15
64158;BME280;50449;51.528;5.076;2023-04-04T08:26:37;102857.78;;;9.88;48.32
64158;BME280;50449;51.528;5.076;2023-04-04T08:29:02;102862.66;;;9.93;48.58
64158;BME280;50449;51.528;5.076;2023-04-04T08:31:28;102859.56;;;9.96;48.17
64158;BME280;50449;51.528;5.076;2023-04-04T08:33:54;102859.19;;;9.99;48.55
64158;BME280;50449;51.528;5.076;2023-04-04T08:36:20;102845.31;;;10.02;48.49
64158;BME280;50449;51.528;5.076;2023-04-04T08:38:45;102840.19;;;10.07;48.32
64158;BME280;50449;51.528;5.076;2023-04-04T08:41:11;102843.97;;;10.13;48.39
64158;BME280;50449;51.528;5.076;2023-04-04T08:43:38;102838.69;;;10.19;48.25
64158;BME280;50449;51.528;5.076;2023-04-04T08:46:06;102848.75;;;10.26;48.56
64158;BME280;50449;51.528;5.076;2023-04-04T08:48:34;102852.75;;;10.30;48.29
64158;BME280;50449;51.528;5.076;2023-04-04T08:51:02;102857.59;;;10.34;48.71
64158;BME280;50449;51.528;5.076;2023-04-04T08:53:29;102856.19;;;10.38;48.35
64158;BME280;50449;51.528;5.076;2023-04-04T08:55:58;102858.31;;;10.43;48.55
64158;BME280;50449;51.528;5.076;2023-04-04T08:58:24;102863.34;;;10.46;48.59
64158;BME280;50449;51.528;5.076;2023-04-04T09:00:54;102851.13;;;10.50;48.60
64158;BME280;50449;51.528;5.076;2023-04-04T09:03:24;102854.47;;;10.52;48.80
64158;BME280;50449;51.528;5.076;2023-04-04T09:05:51;102849.72;;;10.54;49.20
64158;BME280;50449;51.528;5.076;2023-04-04T09:08:17;102848.50;;;10.57;49.24
64158;BME280;50449;51.528;5.076;2023-04-04T09:10:44;102842.53;;;10.61;49.16
64158;BME280;50449;51.528;5.076;2023-04-04T09:13:10;102841.31;;;10.64;49.28
64158;BME280;50449;51.528;5.076;2023-04-04T09:15:41;102845.09;;;10.70;48.92
64158;BME280;50449;51.528;5.076;2023-04-04T09:18:08;102849.28;;;10.72;49.12
64158;BME280;50449;51.528;5.076;2023-04-04T09:20:43;102850.78;;;10.75;49.29
64158;BME280;50449;51.528;5.076;2023-04-04T09:23:14;102849.56;;;10.77;49.17
64158;BME280;50449;51.528;5.076;2023-04-04T09:25:49;102840.03;;;10.81;49.02
64158;BME280;50449;51.528;5.076;2023-04-04T09:28:15;102846.91;;;10.84;49.38
64158;BME280;50449;51.528;5.076;2023-04-04T09:30:41;102843.00;;;10.87;49.19
64158;BME280;50449;51.528;5.076;2023-04-04T09:33:11;102843.25;;;10.92;48.91
64158;BME280;50449;51.528;5.076;2023-04-04T09:35:45;102843.03;;;10.93;48.86
64158;BME280;50449;51.528;5.076;2023-04-04T09:38:11;102838.09;;;10.97;48.88
64158;BME280;50449;51.528;5.076;2023-04-04T09:40:40;102839.56;;;10.99;49.28
64158;BME280;50449;51.528;5.076;2023-04-04T09:43:07;102839.00;;;11.04;49.20
64158;BME280;50449;51.528;5.076;2023-04-04T09:45:34;102843.19;;;11.07;49.19
64158;BME280;50449;51.528;5.076;2023-04-04T09:48:00;102839.88;;;11.11;49.55
64158;BME280;50449;51.528;5.076;2023-04-04T09:50:27;102839.69;;;11.13;49.68
64158;BME280;50449;51.528;5.076;2023-04-04T09:52:57;102832.03;;;11.16;49.33
64158;BME280;50449;51.528;5.076;2023-04-04T09:55:34;102832.47;;;11.20;49.42
64158;BME280;50449;51.528;5.076;2023-04-04T09:58:13;102827.72;;;11.22;49.52
64158;BME280;50449;51.528;5.076;2023-04-04T10:00:40;102830.00;;;11.25;49.41
64158;BME280;50449;51.528;5.076;2023-04-04T10:03:10;102826.06;;;11.27;49.61
64158;BME280;50449;51.528;5.076;2023-04-04T10:05:36;102831.31;;;11.29;49.86
64158;BME280;50449;51.528;5.076;2023-04-04T10:08:13;102825.28;;;11.34;50.16
64158;BME280;50449;51.528;5.076;2023-04-04T10:10:47;102828.22;;;11.39;49.75
64158;BME280;50449;51.528;5.076;2023-04-04T10:13:12;102826.16;;;11.41;49.51
64158;BME280;50449;51.528;5.076;2023-04-04T10:15:38;102821.22;;;11.44;49.61
64158;BME280;50449;51.528;5.076;2023-04-04T10:18:04;102823.34;;;11.49;49.78
64158;BME280;50449;51.528;5.076;2023-04-04T10:20:31;102820.22;;;11.52;49.63
64158;BME280;50449;51.528;5.076;2023-04-04T10:22:57;102814.59;;;11.54;50.09
64158;BME280;50449;51.528;5.076;2023-04-04T10:25:24;102825.88;;;11.57;50.16
64158;BME280;50449;51.528;5.076;2023-04-04T10:27:49;102819.88;;;11.62;49.85
64158;BME280;50449;51.528;5.076;2023-04-04T10:30:15;102816.53;;;11.66;49.81
64158;BME280;50449;51.528;5.076;2023-04-04T10:33:06;102815.53;;;11.67;49.53
64158;BME280;50449;51.528;5.076;2023-04-04T10:35:36;102799.94;;;11.69;49.82
64158;BME280;50449;51.528;5.076;2023-04-04T10:38:05;102804.09;;;11.72;49.76
64158;BME280;50449;51.528;5.076;2023-04-04T10:40:34;102806.19;;;11.77;50.13
64158;BME280;50449;51.528;5.076;2023-04-04T10:43:02;102800.19;;;11.81;49.96
64158;BME280;50449;51.528;5.076;2023-04-04T10:45:30;102803.34;;;11.85;49.83
64158;BME280;50449;51.528;5.076;2023-04-04T10:47:57;102802.97;;;11.88;49.93
64158;BME280;50449;51.528;5.076;2023-04-04T10:50:22;102799.84;;;11.91;50.00
64158;BME280;50449;51.528;5.076;2023-04-04T10:52:49;102799.44;;;11.94;50.03
64158;BME280;50449;51.528;5.076;2023-04-04T10:55:15;102801.13;;;11.95;50.37
64158;BME280;50449;51.528;5.076;2023-04-04T10:57:44;102794.06;;;12.01;50.26
64158;BME280;50449;51.528;5.076;2023-04-04T11:00:12;102786.34;;;12.04;50.40
64158;BME280;50449;51.528;5.076;2023-04-04T11:02:43;102781.56;;;12.06;50.17
64158;BME280;50449;51.528;5.076;2023-04-04T11:05:17;102786.81;;;12.08;50.00
64158;BME280;50449;51.528;5.076;2023-04-04T11:07:44;102790.16;;;12.10;50.07
64158;BME280;50449;51.528;5.076;2023-04-04T11:10:15;102779.94;;;12.12;49.96
64158;BME280;50449;51.528;5.076;2023-04-04T11:12:45;102783.28;;;12.14;49.89
64158;BME280;50449;51.528;5.076;2023-04-04T11:15:14;102786.44;;;12.18;50.15
64158;BME280;50449;51.528;5.076;2023-04-04T11:18:04;102782.47;;;12.20;50.09
64158;BME280;50449;51.528;5.076;2023-04-04T11:20:31;102784.97;;;12.22;50.12
64158;BME280;50449;51.528;5.076;2023-04-04T11:23:17;102781.00;;;12.24;50.10
64158;BME280;50449;51.528;5.076;2023-04-04T11:25:54;102774.34;;;12.27;50.06
64158;BME280;50449;51.528;5.076;2023-04-04T11:34:04;102773.75;;;12.25;50.04
64158;BME280;50449;51.528;5.076;2023-04-04T11:39:27;102757.47;;;12.31;49.90
64158;BME280;50449;51.528;5.076;2023-04-04T11:42:02;102751.88;;;12.33;50.03
64158;BME280;50449;51.528;5.076;2023-04-04T11:44:32;102744.97;;;12.37;50.04
64158;BME280;50449;51.528;5.076;2023-04-04T11:47:08;102747.28;;;12.40;50.29
64158;BME280;50449;51.528;5.076;2023-04-04T11:49:39;102751.25;;;12.44;50.19
64158;BME280;50449;51.528;5.076;2023-04-04T11:52:07;102743.75;;;12.46;50.34
64158;BME280;50449;51.528;5.076;2023-04-04T11:54:40;102740.44;;;12.51;50.07
64158;BME280;50449;51.528;5.076;2023-04-04T11:57:09;102739.19;;;12.53;50.24
64158;BME280;50449;51.528;5.076;2023-04-04T11:59:39;102746.06;;;12.56;49.85
64158;BME280;50449;51.528;5.076;2023-04-04T12:02:06;102734.59;;;12.61;50.09
64158;BME280;50449;51.528;5.076;2023-04-04T12:04:31;102734.38;;;12.62;50.14
64158;BME280;50449;51.528;5.076;2023-04-04T12:06:59;102731.03;;;12.67;50.05
64158;BME280;50449;51.528;5.076;2023-04-04T12:09:25;102728.97;;;12.69;49.90
64158;BME280;50449;51.528;5.076;2023-04-04T12:11:51;102719.56;;;12.71;49.96
64158;BME280;50449;51.528;5.076;2023-04-04T12:14:21;102721.03;;;12.74;49.68
64158;BME280;50449;51.528;5.076;2023-04-04T12:16:48;102712.72;;;12.75;50.02
64158;BME280;50449;51.528;5.076;2023-04-04T12:19:16;102700.81;;;12.76;49.94
64158;BME280;50449;51.528;5.076;2023-04-04T12:21:46;102703.09;;;12.80;49.87
64158;BME280;50449;51.528;5.076;2023-04-04T12:24:11;102703.09;;;12.80;50.01
64158;BME280;50449;51.528;5.076;2023-04-04T12:26:39;102710.84;;;12.83;50.18
64158;BME280;50449;51.528;5.076;2023-04-04T12:29:06;102708.72;;;12.85;49.69
64158;BME280;50449;51.528;5.076;2023-04-04T12:31:32;102698.06;;;12.90;49.64
64158;BME280;50449;51.528;5.076;2023-04-04T12:33:59;102697.69;;;12.93;49.87
64158;BME280;50449;51.528;5.076;2023-04-04T12:36:25;102692.44;;;12.98;49.60
64158;BME280;50449;51.528;5.076;2023-04-04T12:38:59;102693.69;;;13.02;49.45
64158;BME280;50449;51.528;5.076;2023-04-04T12:41:25;102700.34;;;13.06;49.44
64158;BME280;50449;51.528;5.076;2023-04-04T12:43:58;102690.97;;;13.09;49.58
64158;BME280;50449;51.528;5.076;2023-04-04T12:46:25;102691.16;;;13.14;49.19
64158;BME280;50449;51.528;5.076;2023-04-04T12:48:52;102695.97;;;13.18;49.23
64158;BME280;50449;51.528;5.076;2023-04-04T12:51:18;102683.41;;;13.24;49.26
64158;BME280;50449;51.528;5.076;2023-04-04T12:53:50;102681.97;;;13.28;49.07
64158;BME280;50449;51.528;5.076;2023-04-04T12:56:17;102674.22;;;13.32;49.17
64158;BME280;50449;51.528;5.076;2023-04-04T12:58:45;102674.44;;;13.37;49.11
64158;BME280;50449;51.528;5.076;2023-04-04T13:01:14;102670.00;;;13.42;48.87
64158;BME280;50449;51.528;5.076;2023-04-04T13:03:40;102670.19;;;13.48;48.74
64158;BME280;50449;51.528;5.076;2023-04-04T13:06:15;102664.13;;;13.52;48.75